Time;durP1;ratioP1;P1;durP2;ratioP2;P2;SDS_P1;SDS_P2;PMS_P1;PMS_P2;Temp;Humidity;BMP_temperature;BMP_pressure;BME280_temperature;BME280_humidity;BME280_pressure;Samples;Min_cycle;Max_cycle;Signal;HPM_P1;HPM_P2
2022/06/06 00:01:21;;;;;;;21.55;9.48;;;12.20;99.90;;;;;;5000418;28;20495;-72
2022/06/06 00:03:47;;;;;;;18.77;9.32;;;12.10;99.90;;;;;;5033714;28;20232;-70
2022/06/06 00:06:19;;;;;;;21.65;11.82;;;12.10;99.90;;;;;;5032659;28;20071;-70
2022/06/06 00:08:46;;;;;;;26.38;12.13;;;12.00;99.90;;;;;;5026957;28;20035;-70
2022/06/06 00:11:12;;;;;;;24.77;14.47;;;12.00;99.90;;;;;;5031708;28;20140;-70
2022/06/06 00:13:44;;;;;;;23.25;13.07;;;12.00;99.90;;;;;;5038659;28;20492;-70
2022/06/06 00:16:10;;;;;;;26.42;14.07;;;12.00;99.90;;;;;;5031771;28;20143;-70
2022/06/06 00:18:37;;;;;;;22.55;14.75;;;12.10;99.90;;;;;;5021938;28;20050;-70
2022/06/06 00:21:05;;;;;;;26.20;15.18;;;12.10;99.90;;;;;;5017519;28;20032;-70
2022/06/06 00:23:31;;;;;;;23.10;15.18;;;12.10;99.90;;;;;;5022544;28;20056;-70
2022/06/06 00:25:57;;;;;;;29.27;16.48;;;12.10;99.90;;;;;;5018522;28;20389;-70
2022/06/06 00:28:24;;;;;;;36.13;16.25;;;12.10;99.90;;;;;;5023242;28;20608;-70
2022/06/06 00:30:56;;;;;;;32.30;16.80;;;12.10;99.90;;;;;;5020457;28;20062;-70
2022/06/06 00:36:06;;;;;;;35.80;17.05;;;12.20;99.90;;;;;;5033479;28;20056;-70
2022/06/06 00:38:32;;;;;;;36.55;17.55;;;12.20;99.90;;;;;;5028929;28;20468;-70
2022/06/06 00:40:59;;;;;;;33.00;17.85;;;12.10;99.90;;;;;;5028765;28;20484;-70
2022/06/06 00:43:25;;;;;;;30.30;16.00;;;12.10;99.90;;;;;;5008125;28;20029;-70
2022/06/06 00:45:54;;;;;;;36.72;17.88;;;12.10;99.90;;;;;;5013445;28;20405;-70
2022/06/06 00:48:35;;;;;;;26.55;15.25;;;12.10;99.90;;;;;;5026680;28;20493;-70
2022/06/06 00:51:01;;;;;;;28.85;15.20;;;12.10;99.90;;;;;;5023817;28;20033;-70
2022/06/06 00:53:39;;;;;;;29.45;16.88;;;12.10;99.90;;;;;;5022434;28;20041;-70
2022/06/06 00:56:34;;;;;;;32.28;16.08;;;12.20;99.90;;;;;;5019556;28;20026;-71
2022/06/06 00:59:04;;;;;;;34.00;15.95;;;12.20;99.90;;;;;;5021712;28;20041;-70
2022/06/06 01:01:34;;;;;;;26.08;15.60;;;12.30;99.90;;;;;;5029180;28;20028;-70
2022/06/06 01:04:01;;;;;;;28.58;16.30;;;12.30;99.90;;;;;;5002937;28;20231;-70
2022/06/06 01:06:29;;;;;;;28.52;14.75;;;12.30;99.90;;;;;;5024202;28;20365;-70
2022/06/06 01:08:58;;;;;;;28.48;15.45;;;12.40;99.90;;;;;;5024292;28;20039;-70
2022/06/06 01:11:23;;;;;;;33.30;14.82;;;12.30;99.90;;;;;;5025048;28;20052;-70
2022/06/06 01:13:50;;;;;;;19.20;13.05;;;12.20;99.90;;;;;;5025759;28;20040;-70
2022/06/06 01:16:36;;;;;;;20.05;10.98;;;12.20;99.90;;;;;;5023003;28;20038;-70
2022/06/06 01:19:43;;;;;;;15.93;8.88;;;12.10;99.90;;;;;;5023727;28;20048;-70
2022/06/06 01:22:46;;;;;;;19.40;9.27;;;12.00;99.90;;;;;;5028244;28;20110;-70
2022/06/06 01:25:47;;;;;;;17.58;8.40;;;11.90;99.90;;;;;;5019837;28;20041;-71
2022/06/06 01:28:53;;;;;;;19.77;8.45;;;11.80;99.90;;;;;;5010556;28;20455;-72
2022/06/06 01:31:34;;;;;;;27.13;9.20;;;11.90;99.90;;;;;;4990549;28;20511;-71
2022/06/06 01:34:03;;;;;;;18.05;9.52;;;11.90;99.90;;;;;;5014106;28;20035;-70
2022/06/06 01:36:31;;;;;;;17.92;8.55;;;11.80;99.90;;;;;;5030370;28;20501;-71
2022/06/06 01:39:01;;;;;;;21.05;8.98;;;11.80;99.90;;;;;;5038032;28;20033;-71
2022/06/06 01:41:59;;;;;;;19.05;9.02;;;11.70;99.90;;;;;;5025627;28;20496;-71
2022/06/06 01:44:52;;;;;;;22.77;9.30;;;11.60;99.90;;;;;;5017112;28;20374;-71
2022/06/06 01:47:33;;;;;;;17.13;7.00;;;11.70;99.90;;;;;;5025393;28;20060;-71
2022/06/06 01:49:59;;;;;;;;;;;11.70;99.90;;;;;;5035125;28;20464;-71
2022/06/06 01:52:25;;;;;;;14.10;6.53;;;11.60;99.90;;;;;;5024477;28;19943;-71
2022/06/06 01:54:56;;;;;;;13.88;7.38;;;11.60;99.90;;;;;;5026264;28;20087;-72
2022/06/06 01:57:23;;;;;;;21.55;8.07;;;11.70;99.90;;;;;;5028645;28;20033;-71
2022/06/06 01:59:51;;;;;;;18.52;8.63;;;11.70;99.90;;;;;;5025481;28;20562;-71
2022/06/06 02:02:16;;;;;;;15.77;8.07;;;11.80;99.90;;;;;;5033146;28;20025;-71
2022/06/06 02:04:42;;;;;;;16.85;9.95;;;11.80;99.90;;;;;;5013777;28;20030;-70
2022/06/06 02:07:08;;;;;;;17.67;9.73;;;11.70;99.90;;;;;;4994410;28;20029;-71
2022/06/06 02:09:33;;;;;;;28.30;9.63;;;11.60;99.90;;;;;;5015692;28;20460;-71
2022/06/06 02:11:59;;;;;;;18.30;9.98;;;11.60;99.90;;;;;;5036908;28;20114;-72
2022/06/06 02:14:25;;;;;;;24.67;9.53;;;11.60;99.90;;;;;;5028374;28;20025;-72
2022/06/06 02:16:51;;;;;;;17.92;9.13;;;11.60;99.90;;;;;;5029473;28;20396;-71
2022/06/06 02:19:17;;;;;;;18.20;8.60;;;11.70;99.90;;;;;;5020967;28;20034;-71
2022/06/06 02:21:42;;;;;;;17.20;8.67;;;11.60;99.90;;;;;;5021493;28;20454;-71
2022/06/06 02:24:08;;;;;;;16.05;7.35;;;11.60;99.90;;;;;;5023395;28;20060;-71
2022/06/06 02:26:34;;;;;;;24.50;8.33;;;11.50;99.90;;;;;;5017524;28;20033;-72
2022/06/06 02:29:00;;;;;;;22.30;9.20;;;11.40;99.90;;;;;;5021833;28;20029;-72
2022/06/06 02:31:26;;;;;;;11.77;7.50;;;11.40;99.90;;;;;;5020318;28;20029;-72
2022/06/06 02:33:52;;;;;;;19.00;8.90;;;11.40;99.90;;;;;;5021239;28;20650;-72
2022/06/06 02:36:18;;;;;;;20.50;8.35;;;11.40;99.90;;;;;;5022238;28;20033;-71
2022/06/06 02:38:44;;;;;;;22.95;9.30;;;11.40;99.90;;;;;;5022641;28;20037;-71
2022/06/06 02:41:09;;;;;;;22.02;7.57;;;11.40;99.90;;;;;;5030228;28;20029;-71
2022/06/06 02:43:41;;;;;;;20.40;8.95;;;11.30;99.90;;;;;;5011245;28;19916;-72
2022/06/06 02:46:08;;;;;;;20.63;8.67;;;11.30;99.90;;;;;;5000719;28;20493;-72
2022/06/06 02:48:33;;;;;;;18.17;8.70;;;11.30;99.90;;;;;;5029584;28;20316;-71
2022/06/06 02:50:59;;;;;;;17.95;7.82;;;11.30;99.90;;;;;;5025152;28;20032;-72
2022/06/06 02:53:25;;;;;;;17.73;7.65;;;11.30;99.90;;;;;;5019458;28;20033;-72
2022/06/06 02:55:52;;;;;;;19.15;7.85;;;11.30;99.90;;;;;;5026113;28;20829;-72
2022/06/06 02:58:20;;;;;;;20.05;8.27;;;11.20;99.90;;;;;;5023352;28;20044;-72
2022/06/06 03:00:46;;;;;;;16.17;6.90;;;11.20;99.90;;;;;;5020547;28;20504;-72
2022/06/06 03:03:13;;;;;;;36.78;9.18;;;11.10;99.90;;;;;;5033910;28;20037;-72
2022/06/06 03:06:18;;;;;;;24.23;8.35;;;11.00;99.90;;;;;;5017357;28;20244;-72
2022/06/06 03:09:16;;;;;;;21.90;9.07;;;11.00;99.90;;;;;;4967892;28;20089;-72
2022/06/06 03:11:56;;;;;;;21.77;9.82;;;11.10;99.90;;;;;;4965910;28;20152;-71
2022/06/06 03:15:06;;;;;;;21.30;9.80;;;11.20;99.90;;;;;;5033405;28;20438;-72
2022/06/06 03:20:54;;;;;;;34.13;10.32;;;11.20;99.90;;;;;;4984911;28;20040;-72
2022/06/06 03:23:43;;;;;;;14.95;9.02;;;11.20;99.90;;;;;;5032702;28;20480;-72
2022/06/06 03:26:21;;;;;;;22.90;9.73;;;11.20;99.90;;;;;;5026987;28;20049;-72
2022/06/06 03:29:04;;;;;;;18.60;10.70;;;11.20;99.90;;;;;;5024856;28;20128;-72
2022/06/06 03:31:51;;;;;;;22.02;11.02;;;11.20;99.90;;;;;;5016597;28;20210;-72
2022/06/06 03:34:24;;;;;;;22.23;10.85;;;11.30;99.90;;;;;;5033023;28;20037;-72
2022/06/06 03:37:08;;;;;;;25.38;11.27;;;11.30;99.90;;;;;;5007328;28;20029;-72
2022/06/06 03:39:49;;;;;;;24.75;11.27;;;11.40;99.90;;;;;;5016687;28;20029;-72
2022/06/06 03:42:56;;;;;;;30.40;12.18;;;11.50;99.90;;;;;;5021515;28;20104;-72
2022/06/06 03:45:30;;;;;;;24.13;11.57;;;11.60;99.90;;;;;;5024488;28;20512;-71
2022/06/06 03:48:03;;;;;;;28.08;13.15;;;11.70;99.90;;;;;;5035592;28;20040;-71
2022/06/06 03:50:34;;;;;;;25.25;12.45;;;11.80;99.90;;;;;;5029452;28;20028;-72
2022/06/06 03:53:36;;;;;;;32.05;12.30;;;11.80;99.90;;;;;;5029801;28;20047;-71
2022/06/06 03:56:22;;;;;;;20.45;10.30;;;11.90;99.90;;;;;;5027659;28;20030;-72
2022/06/06 03:58:48;;;;;;;20.25;10.10;;;12.00;99.90;;;;;;5004472;28;20033;-72
2022/06/06 04:01:15;;;;;;;16.38;10.40;;;12.10;99.90;;;;;;5030823;28;20373;-71
2022/06/06 04:03:44;;;;;;;20.48;9.90;;;12.10;99.90;;;;;;5032697;28;20481;-71
2022/06/06 04:06:09;;;;;;;18.67;10.07;;;12.20;99.90;;;;;;5019355;28;20051;-72
2022/06/06 04:08:35;;;;;;;17.50;8.88;;;12.20;99.90;;;;;;5030668;28;20025;-72
2022/06/06 04:11:07;;;;;;;12.25;8.07;;;12.30;99.90;;;;;;5024568;28;20493;-72
2022/06/06 04:13:53;;;;;;;13.70;7.47;;;12.40;99.90;;;;;;5029749;28;20034;-72
2022/06/06 04:16:46;;;;;;;13.98;7.55;;;12.40;99.90;;;;;;5024418;28;20377;-73
2022/06/06 04:19:38;;;;;;;10.75;7.38;;;12.40;99.90;;;;;;5023907;28;20546;-72
2022/06/06 04:22:22;;;;;;;18.50;6.90;;;12.40;99.90;;;;;;5027095;28;20033;-71
2022/06/06 04:25:11;;;;;;;16.52;7.07;;;12.50;99.90;;;;;;5024939;28;20032;-72
2022/06/06 04:28:07;;;;;;;10.60;7.38;;;12.50;99.90;;;;;;5015017;28;20041;-71
2022/06/06 04:31:06;;;;;;;14.57;7.90;;;12.60;99.90;;;;;;5024331;28;20241;-72
2022/06/06 04:33:42;;;;;;;10.65;7.10;;;12.60;99.90;;;;;;5025210;28;20400;-72
2022/06/06 04:36:39;;;;;;;9.90;7.10;;;12.60;99.90;;;;;;5033965;28;20479;-71
2022/06/06 04:39:37;;;;;;;22.10;8.75;;;12.60;99.90;;;;;;4976514;28;20305;-72
2022/06/06 04:42:15;;;;;;;14.05;8.05;;;12.60;99.90;;;;;;4994400;28;20076;-72
2022/06/06 04:44:59;;;;;;;10.63;7.88;;;12.70;99.90;;;;;;5026390;28;20035;-72
2022/06/06 04:47:40;;;;;;;12.50;7.70;;;12.70;99.90;;;;;;5036083;28;20093;-72
2022/06/06 04:50:15;;;;;;;14.60;7.88;;;12.70;99.90;;;;;;5021033;28;20124;-72
2022/06/06 04:52:46;;;;;;;14.95;8.45;;;12.70;99.90;;;;;;5026773;28;20099;-72
2022/06/06 04:55:13;;;;;;;13.13;8.27;;;12.80;99.90;;;;;;5027174;28;20041;-73
2022/06/06 04:57:45;;;;;;;17.23;8.47;;;12.90;99.90;;;;;;5018408;28;20033;-72
2022/06/06 05:00:11;;;;;;;11.48;7.28;;;12.90;99.90;;;;;;5031741;28;20232;-72
2022/06/06 05:02:37;;;;;;;11.60;7.30;;;13.00;99.90;;;;;;5024208;28;20033;-72
2022/06/06 05:05:05;;;;;;;10.60;7.80;;;13.00;99.90;;;;;;5024104;28;20081;-72
2022/06/06 05:07:50;;;;;;;28.92;18.55;;;13.00;99.90;;;;;;5030533;28;20068;-72
2022/06/06 05:10:18;;;;;;;10.47;7.33;;;13.10;99.90;;;;;;5008161;28;20648;-72
2022/06/06 05:12:57;;;;;;;10.80;7.32;;;13.10;99.90;;;;;;5032335;28;20261;-72
2022/06/06 05:15:38;;;;;;;12.55;7.47;;;13.10;99.90;;;;;;5017099;28;20140;-72
2022/06/06 05:18:16;;;;;;;;;;;13.10;99.90;;;;;;5020125;28;20128;-72
2022/06/06 05:20:56;;;;;;;10.02;7.75;;;13.10;99.90;;;;;;5034779;28;19939;-73
2022/06/06 05:23:30;;;;;;;12.68;7.35;;;13.10;99.90;;;;;;5015888;28;20110;-73
2022/06/06 05:26:11;;;;;;;109.55;59.08;;;13.10;99.90;;;;;;5037460;28;20024;-72
2022/06/06 05:29:00;;;;;;;18.60;10.10;;;13.10;99.90;;;;;;5017834;28;20572;-72
2022/06/06 05:31:41;;;;;;;18.90;10.18;;;13.20;99.90;;;;;;5019480;28;20196;-73
2022/06/06 05:34:45;;;;;;;16.98;9.43;;;13.30;99.90;;;;;;4995211;28;20501;-73
2022/06/06 05:37:19;;;;;;;13.85;7.68;;;13.30;99.90;;;;;;4972346;28;20033;-73
2022/06/06 05:40:34;;;;;;;14.32;9.38;;;13.40;99.90;;;;;;5022076;28;20065;-73
2022/06/06 05:43:13;;;;;;;20.95;9.73;;;13.50;99.90;;;;;;4975466;28;20132;-73
2022/06/06 05:45:53;;;;;;;11.75;7.57;;;13.50;99.90;;;;;;5016944;28;20216;-72
2022/06/06 05:48:30;;;;;;;9.85;6.78;;;13.60;99.90;;;;;;5014050;28;20118;-73
2022/06/06 05:51:20;;;;;;;11.73;7.35;;;13.70;99.90;;;;;;5020318;28;20515;-73
2022/06/06 05:54:06;;;;;;;11.82;7.20;;;13.80;99.90;;;;;;5006086;28;20037;-73
2022/06/06 05:56:35;;;;;;;13.88;7.47;;;14.00;99.90;;;;;;5009853;28;20029;-73
2022/06/06 05:59:10;;;;;;;28.23;18.33;;;14.10;99.90;;;;;;4996181;28;20175;-73
2022/06/06 06:02:05;;;;;;;25.90;14.15;;;14.30;99.90;;;;;;5003995;28;20143;-73
2022/06/06 06:05:03;;;;;;;14.40;7.30;;;14.50;99.90;;;;;;5018207;28;20026;-73
2022/06/06 06:07:43;;;;;;;9.35;6.53;;;14.70;99.90;;;;;;4999945;28;20029;-73
2022/06/06 06:10:16;;;;;;;10.43;6.85;;;14.70;99.90;;;;;;4998878;28;20671;-73
2022/06/06 06:12:57;;;;;;;8.68;6.70;;;14.70;99.90;;;;;;5000297;28;20547;-73
2022/06/06 06:15:33;;;;;;;7.30;6.28;;;14.60;99.90;;;;;;5012468;28;20111;-73
2022/06/06 06:18:02;;;;;;;8.45;6.65;;;14.60;99.90;;;;;;4998529;28;20509;-73
2022/06/06 06:20:35;;;;;;;8.85;5.65;;;14.60;99.90;;;;;;4999191;28;20033;-73
2022/06/06 06:23:07;;;;;;;9.88;6.15;;;14.60;99.90;;;;;;5005644;28;20640;-73
2022/06/06 06:25:38;;;;;;;8.93;6.93;;;14.70;99.90;;;;;;5010008;28;20052;-71
2022/06/06 06:28:07;;;;;;;7.35;6.63;;;14.90;99.90;;;;;;4996259;28;20647;-73
2022/06/06 06:30:55;;;;;;;6.75;6.15;;;15.00;99.90;;;;;;5001672;28;20025;-73
2022/06/06 06:33:39;;;;;;;7.85;5.68;;;15.20;99.90;;;;;;4995805;28;20045;-73
2022/06/06 06:36:30;;;;;;;6.18;5.30;;;15.30;99.90;;;;;;5010058;28;20041;-73
2022/06/06 06:39:02;;;;;;;6.05;5.00;;;15.50;99.90;;;;;;4997409;28;20033;-73
2022/06/06 06:41:52;;;;;;;5.93;5.32;;;15.60;99.90;;;;;;5015111;28;20029;-73
2022/06/06 06:44:32;;;;;;;6.95;6.30;;;15.70;99.90;;;;;;5017582;28;20106;-73
2022/06/06 06:47:05;;;;;;;5.75;4.53;;;16.00;99.90;;;;;;5027960;28;20111;-74
2022/06/06 06:49:39;;;;;;;4.97;4.50;;;16.30;99.90;;;;;;5008183;28;20384;-74
2022/06/06 06:52:17;;;;;;;4.15;3.85;;;16.50;99.90;;;;;;5012119;28;20040;-74
2022/06/06 06:54:51;;;;;;;5.88;4.22;;;16.50;99.90;;;;;;5010442;28;20029;-73
2022/06/06 06:57:22;;;;;;;4.25;3.95;;;16.50;99.90;;;;;;4997847;28;20060;-74
2022/06/06 07:00:06;;;;;;;7.05;4.15;;;16.40;99.90;;;;;;5008929;28;20033;-74
2022/06/06 07:08:46;;;;;;;9.68;4.38;;;16.90;99.90;;;;;;5017727;28;20052;-74
2022/06/06 07:11:30;;;;;;;4.63;4.18;;;16.80;99.90;;;;;;5004213;28;20638;-74
2022/06/06 07:14:24;;;;;;;5.07;3.47;;;17.10;99.90;;;;;;5009201;28;20046;-74
2022/06/06 07:16:56;;;;;;;3.20;2.92;;;17.60;99.90;;;;;;5007380;28;20061;-73
2022/06/06 07:19:35;;;;;;;3.42;3.13;;;17.80;99.90;;;;;;5006883;28;20054;-74
2022/06/06 07:22:03;;;;;;;4.35;2.88;;;17.70;99.90;;;;;;5016299;28;20037;-75
2022/06/06 07:24:29;;;;;;;2.20;2.08;;;17.80;99.90;;;;;;5002440;28;20036;-75
2022/06/06 07:26:57;;;;;;;2.53;2.30;;;17.60;99.90;;;;;;5013754;28;20048;-74
2022/06/06 07:29:23;;;;;;;3.63;2.60;;;17.40;99.90;;;;;;4999364;28;20026;-74
2022/06/06 07:31:58;;;;;;;4.80;2.92;;;17.40;99.90;;;;;;5009840;28;20045;-74
2022/06/06 07:34:57;;;;;;;4.03;2.33;;;19.30;99.90;;;;;;5013443;28;20030;-73
2022/06/06 07:37:36;;;;;;;2.00;1.80;;;20.30;99.90;;;;;;4989210;28;20056;-73
2022/06/06 07:40:40;;;;;;;3.10;1.25;;;24.00;99.90;;;;;;5018891;28;20546;-71
2022/06/06 07:43:33;;;;;;;2.05;1.73;;;23.40;95.40;;;;;;4941472;28;20125;-73
2022/06/06 07:46:17;;;;;;;1.85;1.70;;;22.70;95.40;;;;;;4947419;28;20039;-74
2022/06/06 07:48:54;;;;;;;1.67;1.58;;;23.90;95.40;;;;;;5005285;28;20060;-73
2022/06/06 07:51:47;;;;;;;1.77;1.65;;;21.60;99.90;;;;;;4679892;28;10000474;-74
2022/06/06 07:54:53;;;;;;;2.17;1.52;;;21.60;99.90;;;;;;5021913;28;20055;-74
2022/06/06 07:57:32;;;;;;;2.03;1.52;;;20.60;99.90;;;;;;5007239;28;20057;-74
2022/06/06 08:00:03;;;;;;;5.50;1.48;;;22.60;99.90;;;;;;5023319;28;20059;-71
2022/06/06 08:03:14;;;;;;;2.17;1.67;;;23.00;94.60;;;;;;5014212;28;20029;-71
2022/06/06 08:06:01;;;;;;;2.42;1.10;;;22.20;98.80;;;;;;4998414;28;20038;-70
2022/06/06 08:08:51;;;;;;;1.58;1.48;;;21.20;99.90;;;;;;5004610;28;20549;-73
2022/06/06 08:11:33;;;;;;;1.70;1.15;;;24.20;98.30;;;;;;5002825;28;20108;-72
2022/06/06 08:14:40;;;;;;;3.72;1.38;;;27.60;82.50;;;;;;5010774;28;20048;-74
2022/06/06 08:17:22;;;;;;;2.72;1.10;;;27.40;58.80;;;;;;5002750;28;20022;-73
2022/06/06 08:20:15;;;;;;;10.35;5.45;;;25.30;70.30;;;;;;5009549;28;20236;-72
2022/06/06 08:22:44;;;;;;;2.00;1.08;;;23.40;91.60;;;;;;5010118;28;20025;-74
2022/06/06 08:25:14;;;;;;;2.00;1.30;;;24.50;90.90;;;;;;5003795;28;20552;-74
2022/06/06 08:27:46;;;;;;;2.90;1.63;;;24.30;85.90;;;;;;5002500;28;20033;-74
2022/06/06 08:30:13;;;;;;;3.83;1.20;;;22.90;91.50;;;;;;5011174;28;20029;-73
2022/06/06 08:32:39;;;;;;;2.25;1.52;;;21.70;95.40;;;;;;4680688;28;9999921;-75
2022/06/06 08:35:05;;;;;;;1.83;1.63;;;20.90;98.30;;;;;;5025223;28;20115;-76
2022/06/06 08:38:01;;;;;;;2.08;1.80;;;19.70;99.90;;;;;;5028224;28;20025;-76
2022/06/06 08:40:49;;;;;;;2.38;1.83;;;19.10;99.90;;;;;;5024780;28;20082;-76
2022/06/06 08:43:17;;;;;;;2.25;2.10;;;19.10;99.90;;;;;;5010146;28;20025;-76
2022/06/06 08:45:53;;;;;;;7.82;2.22;;;18.70;99.90;;;;;;5001540;28;20076;-76
2022/06/06 08:48:47;;;;;;;3.47;2.30;;;18.90;99.90;;;;;;5010311;28;20185;-74
2022/06/06 08:51:30;;;;;;;3.55;2.13;;;19.30;99.90;;;;;;5025117;28;20030;-75
2022/06/06 08:54:08;;;;;;;4.25;2.58;;;19.40;99.90;;;;;;5023711;28;20124;-74
2022/06/06 08:56:51;;;;;;;2.88;2.08;;;19.70;99.90;;;;;;5010119;28;20474;-73
2022/06/06 08:59:37;;;;;;;2.53;2.20;;;19.40;99.90;;;;;;5024109;28;20030;-75
2022/06/06 09:02:30;;;;;;;2.47;2.28;;;19.00;99.90;;;;;;5015722;28;20108;-75
2022/06/06 09:05:13;;;;;;;3.40;2.20;;;18.40;99.90;;;;;;5021820;28;20048;-75
2022/06/06 09:08:00;;;;;;;4.07;2.72;;;18.00;99.90;;;;;;5015794;28;20083;-75
2022/06/06 09:10:41;;;;;;;4.90;2.17;;;17.70;99.90;;;;;;5026629;28;20037;-75
2022/06/06 09:13:31;;;;;;;5.18;2.50;;;17.40;99.90;;;;;;5023382;28;20057;-74
2022/06/06 09:16:06;;;;;;;3.47;2.70;;;16.90;99.90;;;;;;5025137;28;20040;-72
2022/06/06 09:18:51;;;;;;;4.93;3.30;;;16.70;99.90;;;;;;5019271;28;20161;-73
2022/06/06 09:21:47;;;;;;;3.35;3.15;;;16.70;99.90;;;;;;5023171;28;20432;-73
2022/06/06 09:24:38;;;;;;;5.22;4.00;;;16.50;99.90;;;;;;5031264;28;20077;-73
2022/06/06 09:27:19;;;;;;;8.80;4.18;;;16.50;99.90;;;;;;5025643;28;20029;-74
2022/06/06 09:29:48;;;;;;;5.60;3.42;;;16.70;99.90;;;;;;5012417;28;20048;-73
2022/06/06 09:32:47;;;;;;;6.35;4.65;;;17.10;99.90;;;;;;5026651;28;20047;-74
2022/06/06 09:35:40;;;;;;;4.85;3.35;;;17.50;99.90;;;;;;5014849;28;20056;-74
2022/06/06 09:38:14;;;;;;;4.32;2.40;;;18.00;99.90;;;;;;5010967;28;20032;-73
2022/06/06 09:41:16;;;;;;;1.90;1.80;;;18.30;99.90;;;;;;5010516;28;20041;-73
2022/06/06 09:44:12;;;;;;;2.97;2.15;;;19.60;99.90;;;;;;4968663;28;20496;-75
2022/06/06 09:47:09;;;;;;;2.70;1.98;;;21.40;99.90;;;;;;4999185;28;20025;-73
2022/06/06 09:50:14;;;;;;;2.75;1.90;;;22.40;99.90;;;;;;5009353;28;20141;-74
2022/06/06 09:53:04;;;;;;;4.35;2.47;;;23.10;96.50;;;;;;4667829;28;10000046;-73
2022/06/06 09:59:13;;;;;;;2.15;1.92;;;21.70;97.70;;;;;;5016726;28;20057;-73
2022/06/06 10:02:26;;;;;;;2.78;2.53;;;20.50;99.90;;;;;;5019661;28;20025;-74
2022/06/06 10:05:10;;;;;;;4.10;2.22;;;19.60;99.90;;;;;;5004841;28;20062;-74
2022/06/06 10:07:55;;;;;;;6.20;3.00;;;18.70;99.90;;;;;;5002037;28;20544;-74
2022/06/06 10:10:36;;;;;;;5.43;2.67;;;18.00;99.90;;;;;;5014215;28;20480;-75
2022/06/06 10:13:09;;;;;;;3.38;2.80;;;17.40;99.90;;;;;;5011522;28;20041;-74
2022/06/06 10:15:52;;;;;;;4.53;3.00;;;17.10;99.90;;;;;;5007160;28;20032;-73
2022/06/06 10:18:26;;;;;;;3.65;2.72;;;16.90;99.90;;;;;;5008936;28;20409;-75
2022/06/06 10:21:36;;;;;;;3.83;2.70;;;16.70;99.90;;;;;;5007461;28;20485;-76
2022/06/06 10:24:23;;;;;;;3.55;3.13;;;16.70;99.90;;;;;;4957782;28;20079;-76
2022/06/06 10:26:58;;;;;;;3.95;3.60;;;16.60;99.90;;;;;;5011287;28;20068;-76
2022/06/06 10:30:11;;;;;;;5.47;3.75;;;16.30;99.90;;;;;;5005073;28;20026;-76
2022/06/06 10:33:02;;;;;;;3.95;3.55;;;16.20;99.90;;;;;;5011553;28;20037;-76
2022/06/06 10:35:55;;;;;;;6.88;4.35;;;16.00;99.90;;;;;;5016135;28;20025;-76
2022/06/06 10:38:45;;;;;;;4.75;4.35;;;15.90;99.90;;;;;;4983137;28;20041;-76
2022/06/06 10:41:17;;;;;;;4.15;3.80;;;15.90;99.90;;;;;;5020981;28;20021;-76
2022/06/06 10:44:01;;;;;;;6.68;3.58;;;15.80;99.90;;;;;;5013659;28;20036;-76
2022/06/06 10:46:46;;;;;;;6.50;3.40;;;15.80;99.90;;;;;;4653726;28;9999953;-75
2022/06/06 10:49:28;;;;;;;18.73;4.50;;;15.80;99.90;;;;;;5016985;28;20108;-75
2022/06/06 10:51:59;;;;;;;6.43;3.75;;;15.90;99.90;;;;;;4988582;28;20512;-76
2022/06/06 10:54:57;;;;;;;;;;;15.90;99.90;;;;;;5017436;28;20032;-75
2022/06/06 10:57:44;;;;;;;6.85;2.92;;;15.90;99.90;;;;;;4994441;28;20343;-75
2022/06/06 11:00:37;;;;;;;5.40;3.20;;;16.00;99.90;;;;;;5017513;28;20029;-76
2022/06/06 11:03:40;;;;;;;8.05;3.65;;;16.00;99.90;;;;;;5012122;28;20063;-76
2022/06/06 11:06:36;;;;;;;7.28;3.70;;;16.10;99.90;;;;;;5011949;28;20083;-75
2022/06/06 11:09:10;;;;;;;7.53;3.65;;;16.10;99.90;;;;;;5008525;28;20026;-75
2022/06/06 11:11:55;;;;;;;6.07;3.97;;;16.10;99.90;;;;;;5014841;28;20029;-77
2022/06/06 11:14:37;;;;;;;7.07;3.38;;;16.00;99.90;;;;;;4997685;28;20033;-75
2022/06/06 11:17:18;;;;;;;6.38;3.50;;;16.00;99.90;;;;;;5021144;28;20036;-76
2022/06/06 11:20:03;;;;;;;7.70;3.15;;;16.00;99.90;;;;;;5002282;28;20033;-75
2022/06/06 11:22:54;;;;;;;9.10;3.42;;;16.20;99.90;;;;;;5023003;28;20028;-76
2022/06/06 11:25:22;;;;;;;5.57;3.17;;;16.30;99.90;;;;;;5020467;28;20456;-75
2022/06/06 11:28:29;;;;;;;5.65;2.90;;;16.50;99.90;;;;;;5007998;28;20051;-75
2022/06/06 11:31:10;;;;;;;7.10;3.50;;;16.80;99.90;;;;;;4976712;28;20049;-75
2022/06/06 11:34:05;;;;;;;3.78;2.58;;;17.40;99.90;;;;;;5027341;28;20112;-75
2022/06/06 11:37:02;;;;;;;7.68;3.22;;;17.60;99.90;;;;;;5004123;28;20068;-74
2022/06/06 11:40:09;;;;;;;7.80;2.42;;;17.70;99.90;;;;;;5014657;28;20035;-75
2022/06/06 11:43:00;;;;;;;6.45;2.58;;;17.70;99.90;;;;;;5023902;28;20049;-75
2022/06/06 11:46:02;;;;;;;7.57;2.53;;;17.90;99.90;;;;;;5022301;28;20033;-76
2022/06/06 11:48:48;;;;;;;9.70;2.80;;;18.30;99.90;;;;;;5024696;28;20079;-76
2022/06/06 11:51:49;;;;;;;8.07;2.88;;;18.30;99.90;;;;;;5023821;28;20682;-75
2022/06/06 11:54:26;;;;;;;9.13;2.72;;;18.50;99.90;;;;;;4976423;28;20064;-76
2022/06/06 11:57:25;;;;;;;8.63;2.25;;;18.90;99.90;;;;;;5018603;28;20110;-79
2022/06/06 12:00:24;;;;;;;8.85;1.77;;;19.20;99.90;;;;;;5020133;28;20398;-75
2022/06/06 12:03:09;;;;;;;6.50;1.85;;;19.40;99.90;;;;;;4675072;28;10001142;-76
2022/06/06 12:05:43;;;;;;;6.43;2.65;;;19.60;99.90;;;;;;5010367;28;20495;-75
2022/06/06 12:08:08;;;;;;;7.45;3.03;;;19.40;99.90;;;;;;5024544;28;20049;-78
2022/06/06 12:11:06;;;;;;;8.88;2.95;;;18.90;99.90;;;;;;5019450;28;20623;-76
2022/06/06 12:14:20;;;;;;;11.05;2.80;;;18.20;99.90;;;;;;4972913;28;20037;-75
2022/06/06 12:17:03;;;;;;;11.48;3.38;;;17.50;99.90;;;;;;5018219;28;20039;-74
2022/06/06 12:19:57;;;;;;;6.75;2.97;;;16.90;99.90;;;;;;5019077;28;20515;-74
2022/06/06 12:22:44;;;;;;;6.18;3.30;;;16.80;99.90;;;;;;5017484;28;20624;-75
2022/06/06 12:25:31;;;;;;;7.10;3.08;;;16.80;99.90;;;;;;5015241;28;20476;-75
2022/06/06 12:28:18;;;;;;;8.07;2.50;;;17.10;99.90;;;;;;5022473;28;20514;-74
2022/06/06 12:31:16;;;;;;;11.68;2.25;;;17.60;99.90;;;;;;5023134;28;20460;-74
2022/06/06 12:33:52;;;;;;;4.63;2.28;;;18.20;99.90;;;;;;5022254;28;20582;-74
2022/06/06 12:36:33;;;;;;;7.45;2.85;;;19.00;99.90;;;;;;5019715;28;20072;-75
2022/06/06 12:39:15;;;;;;;;;;;19.10;99.90;;;;;;5021484;28;20047;-74
2022/06/06 12:41:53;;;;;;;8.50;2.10;;;19.40;99.90;;;;;;5013929;28;20541;-76
2022/06/06 12:45:02;;;;;;;6.25;2.10;;;19.20;99.90;;;;;;5009181;28;20038;-75
2022/06/06 12:47:48;;;;;;;6.55;1.80;;;19.10;99.90;;;;;;5014095;28;20048;-74
2022/06/06 12:50:41;;;;;;;6.40;2.28;;;19.00;99.90;;;;;;5024088;28;20066;-74
2022/06/06 12:53:19;;;;;;;5.05;2.08;;;19.30;99.90;;;;;;5014648;28;20088;-75
2022/06/06 12:56:26;;;;;;;5.07;1.73;;;19.80;99.90;;;;;;5017584;28;20060;-75
2022/06/06 12:59:04;;;;;;;3.15;2.42;;;19.90;99.90;;;;;;5007001;28;20036;-75
2022/06/06 13:02:02;;;;;;;9.38;2.15;;;20.10;99.90;;;;;;5019260;28;20029;-75
2022/06/06 13:04:41;;;;;;;6.22;2.67;;;20.00;99.90;;;;;;5007754;28;20033;-76
2022/06/06 13:07:24;;;;;;;7.90;2.65;;;20.10;99.90;;;;;;5008650;28;20037;-74
2022/06/06 13:10:15;;;;;;;7.03;2.47;;;20.10;99.90;;;;;;5018799;28;20029;-74
2022/06/06 13:12:53;;;;;;;8.20;2.53;;;20.10;99.90;;;;;;5030251;28;20094;-75
2022/06/06 13:15:46;;;;;;;7.32;2.33;;;20.20;99.90;;;;;;5029366;28;20038;-74
2022/06/06 13:19:04;;;;;;;4.90;2.22;;;20.20;99.90;;;;;;5021117;28;20037;-74
2022/06/06 13:22:10;;;;;;;7.97;2.60;;;20.00;99.90;;;;;;4983008;28;20037;-75
2022/06/06 13:24:45;;;;;;;9.57;2.47;;;19.90;99.90;;;;;;4970080;28;20095;-75
2022/06/06 13:27:31;;;;;;;6.88;2.10;;;20.00;99.90;;;;;;5014892;28;20480;-76
2022/06/06 13:30:17;;;;;;;4.97;2.03;;;20.30;99.90;;;;;;5012839;28;20060;-75
2022/06/06 13:32:48;;;;;;;8.25;2.20;;;21.00;99.90;;;;;;5016498;28;20087;-74
2022/06/06 13:35:14;;;;;;;;;;;21.30;99.90;;;;;;5011691;28;20203;-75
2022/06/06 13:37:54;;;;;;;7.10;2.10;;;21.30;99.90;;;;;;5015714;28;20008;-75
2022/06/06 13:40:23;;;;;;;7.40;2.72;;;21.50;99.90;;;;;;5012806;28;20056;-76
2022/06/06 13:43:07;;;;;;;9.07;1.75;;;22.00;99.90;;;;;;5014064;28;20030;-75
2022/06/06 13:45:47;;;;;;;7.43;1.90;;;22.60;99.90;;;;;;5013521;28;20389;-76
2022/06/06 13:48:40;;;;;;;6.39;1.76;;;23.10;99.90;;;;;;4989713;28;10001005;-73
2022/06/06 13:51:24;;;;;;;5.32;2.03;;;23.50;94.90;;;;;;5009237;28;20228;-76
2022/06/06 13:54:02;;;;;;;4.47;1.55;;;23.20;98.90;;;;;;5008681;28;20048;-77
2022/06/06 13:56:38;;;;;;;6.45;1.27;;;23.40;99.00;;;;;;5010789;28;20040;-75
2022/06/06 13:59:36;;;;;;;7.43;1.50;;;23.20;97.80;;;;;;5008343;28;20057;-75
2022/06/06 14:02:21;;;;;;;13.20;2.00;;;23.10;98.60;;;;;;5004065;28;20037;-77
2022/06/06 14:05:06;;;;;;;7.43;2.08;;;22.80;99.90;;;;;;5005603;28;20246;-77
2022/06/06 14:08:02;;;;;;;8.52;1.95;;;22.50;99.90;;;;;;5015532;28;20047;-75